Time;durP1;ratioP1;P1;durP2;ratioP2;P2;SDS_P1;SDS_P2;PMS_P1;PMS_P2;Temp;Humidity;BMP_temperature;BMP_pressure;BME280_temperature;BME280_humidity;BME280_pressure;Samples;Min_cycle;Max_cycle;Signal;HPM_P1;HPM_P2
2021/03/15 00:00:49;;;;;;;0.00;0.00;;;4.80;99.90;;;;;;6153496;23;20758;-68
2021/03/15 00:03:17;;;;;;;0.00;0.00;;;4.80;99.90;;;;;;6153961;23;20434;-67
2021/03/15 00:05:43;;;;;;;0.00;0.00;;;4.80;99.90;;;;;;6152968;23;20378;-68
2021/03/15 00:08:10;;;;;;;0.00;0.00;;;4.90;99.90;;;;;;6153079;23;20486;-67
2021/03/15 00:10:36;;;;;;;0.00;0.00;;;4.90;99.90;;;;;;6153216;23;20446;-67
2021/03/15 00:13:03;;;;;;;0.00;0.00;;;4.90;99.90;;;;;;6153201;23;20379;-68
2021/03/15 00:15:30;;;;;;;0.00;0.00;;;4.90;99.90;;;;;;6153596;23;20441;-67
2021/03/15 00:17:56;;;;;;;0.00;0.00;;;4.90;99.90;;;;;;6153224;23;20739;-69
2021/03/15 00:20:24;;;;;;;0.00;0.00;;;5.00;99.90;;;;;;6153310;23;20378;-68
2021/03/15 00:22:50;;;;;;;0.00;0.00;;;5.00;99.90;;;;;;6153799;23;20379;-68
2021/03/15 00:25:18;;;;;;;0.00;0.00;;;5.00;99.90;;;;;;6153923;23;20383;-68
2021/03/15 00:27:45;;;;;;;0.00;0.00;;;5.10;99.90;;;;;;6153069;23;20375;-67
2021/03/15 00:30:14;;;;;;;0.00;0.00;;;5.10;99.90;;;;;;6153504;23;20383;-68
2021/03/15 00:32:42;;;;;;;0.00;0.00;;;5.10;99.90;;;;;;6153467;23;20383;-67
2021/03/15 00:35:10;;;;;;;0.00;0.00;;;5.10;99.90;;;;;;6153877;23;20375;-68
2021/03/15 00:37:38;;;;;;;0.00;0.00;;;5.10;99.90;;;;;;6153311;23;20382;-67
2021/03/15 00:40:06;;;;;;;0.00;0.00;;;5.10;99.90;;;;;;6153094;23;20375;-68
2021/03/15 00:42:33;;;;;;;0.00;0.00;;;5.10;99.90;;;;;;6153037;23;20384;-68
2021/03/15 00:44:59;;;;;;;0.00;0.00;;;5.10;99.90;;;;;;6153520;23;20382;-68
2021/03/15 00:47:25;;;;;;;0.00;0.00;;;5.10;99.90;;;;;;6152838;23;20410;-68
2021/03/15 00:49:52;;;;;;;0.00;0.00;;;5.10;99.90;;;;;;6152807;23;20394;-68
2021/03/15 00:52:18;;;;;;;0.00;0.00;;;5.20;99.90;;;;;;6153329;23;20400;-68
2021/03/15 00:54:45;;;;;;;0.00;0.00;;;5.20;99.90;;;;;;6152796;23;20418;-67
2021/03/15 00:57:11;;;;;;;0.00;0.00;;;5.20;99.90;;;;;;6152897;23;20378;-68
2021/03/15 00:59:37;;;;;;;0.00;0.00;;;5.20;99.90;;;;;;6152984;23;20465;-67
2021/03/15 01:02:03;;;;;;;0.00;0.00;;;5.20;99.90;;;;;;6153350;23;20893;-67
2021/03/15 01:04:29;;;;;;;0.00;0.00;;;5.20;99.90;;;;;;6152855;23;20714;-69
2021/03/15 01:06:56;;;;;;;0.00;0.00;;;5.20;1.00;;;;;;6152812;23;20379;-69
2021/03/15 01:09:22;;;;;;;0.00;0.00;;;5.20;99.90;;;;;;6152953;23;20391;-68
2021/03/15 01:11:49;;;;;;;0.00;0.00;;;5.20;99.90;;;;;;6152707;23;20375;-68
2021/03/15 01:14:16;;;;;;;0.00;0.00;;;5.10;99.90;;;;;;6153300;23;20384;-67
2021/03/15 01:16:42;;;;;;;0.00;0.00;;;5.00;99.90;;;;;;6152921;23;20698;-68
2021/03/15 01:19:08;;;;;;;0.00;0.00;;;4.90;99.90;;;;;;6154743;23;20386;-68
2021/03/15 01:21:34;;;;;;;0.00;0.00;;;5.00;1.00;;;;;;6154934;23;20386;-68
2021/03/15 01:24:01;;;;;;;0.00;0.00;;;5.00;1.00;;;;;;6155076;23;20387;-68
2021/03/15 01:26:27;;;;;;;0.00;0.00;;;4.90;1.00;;;;;;6154683;23;20414;-68
2021/03/15 01:28:54;;;;;;;0.00;0.00;;;4.90;1.00;;;;;;6154975;23;20386;-68
2021/03/15 01:31:20;;;;;;;0.00;0.00;;;5.00;1.00;;;;;;6155496;23;20378;-69
2021/03/15 01:33:46;;;;;;;0.00;0.00;;;4.90;1.00;;;;;;6154643;23;20763;-69
2021/03/15 01:36:12;;;;;;;0.00;0.00;;;4.90;1.00;;;;;;6154598;23;20414;-69
2021/03/15 01:38:38;;;;;;;0.00;0.00;;;4.90;1.00;;;;;;6154728;23;20383;-69
2021/03/15 01:41:05;;;;;;;0.00;0.00;;;4.90;1.00;;;;;;6154602;23;20722;-68
2021/03/15 01:43:31;;;;;;;0.00;0.00;;;4.80;1.00;;;;;;6154770;23;20435;-68
2021/03/15 01:45:58;;;;;;;0.00;0.00;;;4.80;1.00;;;;;;6154590;23;20386;-69
2021/03/15 01:48:24;;;;;;;0.00;0.00;;;4.70;1.00;;;;;;6154595;23;20398;-68
2021/03/15 01:50:51;;;;;;;0.00;0.00;;;4.80;1.00;;;;;;6154535;23;21021;-68
2021/03/15 01:53:19;;;;;;;0.00;0.00;;;4.80;1.00;;;;;;6156310;23;20386;-68
2021/03/15 01:55:46;;;;;;;0.00;0.00;;;4.80;1.00;;;;;;6154691;23;20398;-68
2021/03/15 01:58:13;;;;;;;0.00;0.00;;;4.80;1.00;;;;;;6154049;23;20374;-68
2021/03/15 02:00:40;;;;;;;0.00;0.00;;;4.80;1.00;;;;;;6154465;23;20382;-68
2021/03/15 02:03:08;;;;;;;0.00;0.00;;;4.70;1.00;;;;;;6154904;23;20430;-67
2021/03/15 02:05:36;;;;;;;0.00;0.00;;;4.70;1.00;;;;;;6154172;23;20846;-67
2021/03/15 02:08:03;;;;;;;0.00;0.00;;;4.60;1.00;;;;;;6154191;23;20407;-68
2021/03/15 02:10:29;;;;;;;0.00;0.00;;;4.70;1.00;;;;;;6154407;23;20386;-68
2021/03/15 02:13:11;;;;;;;0.00;0.00;;;4.60;1.00;;;;;;6154143;23;20422;-70
2021/03/15 02:15:45;;;;;;;0.00;0.00;;;4.70;1.00;;;;;;6154441;23;20375;-69
2021/03/15 02:18:19;;;;;;;0.00;0.00;;;4.80;1.00;;;;;;6154234;23;20382;-68
2021/03/15 02:21:46;;;;;;;0.00;0.00;;;4.80;1.00;;;;;;6154314;23;20382;-68
2021/03/15 02:24:20;;;;;;;0.00;0.00;;;4.90;1.00;;;;;;6154146;23;20850;-68
2021/03/15 02:27:28;;;;;;;0.00;0.00;;;4.90;1.00;;;;;;6153904;23;20390;-68
2021/03/15 02:30:28;;;;;;;0.00;0.00;;;4.80;1.00;;;;;;6154347;23;20391;-68
2021/03/15 02:33:14;;;;;;;0.00;0.00;;;4.80;1.00;;;;;;6154126;23;20386;-68
2021/03/15 02:35:42;;;;;;;0.00;0.00;;;4.80;1.00;;;;;;6154378;23;20431;-68
2021/03/15 02:38:11;;;;;;;0.00;0.00;;;4.70;1.00;;;;;;6153648;23;20375;-68
2021/03/15 02:40:41;;;;;;;0.00;0.00;;;4.60;1.00;;;;;;6154274;23;20386;-68
2021/03/15 02:43:09;;;;;;;0.00;0.00;;;4.60;1.00;;;;;;6153801;23;20453;-68
2021/03/15 02:45:37;;;;;;;0.00;0.00;;;4.60;1.00;;;;;;6154330;23;20395;-68
2021/03/15 02:48:09;;;;;;;0.00;0.00;;;4.70;1.00;;;;;;6153835;23;20445;-68
2021/03/15 02:50:39;;;;;;;0.00;0.00;;;4.70;1.00;;;;;;6154199;23;20850;-69
2021/03/15 02:53:09;;;;;;;0.00;0.00;;;4.80;1.00;;;;;;6154656;23;20445;-68
2021/03/15 02:55:36;;;;;;;0.00;0.00;;;4.90;1.00;;;;;;6154900;23;20386;-68
2021/03/15 02:58:04;;;;;;;0.00;0.00;;;4.70;1.00;;;;;;6154362;23;20441;-68
2021/03/15 03:00:32;;;;;;;0.00;0.00;;;4.80;1.00;;;;;;6154554;23;20952;-68
2021/03/15 03:02:59;;;;;;;0.00;0.00;;;4.80;1.00;;;;;;6154776;23;20382;-69
2021/03/15 03:05:25;;;;;;;0.00;0.00;;;4.70;1.00;;;;;;6154487;23;20754;-68
2021/03/15 03:07:54;;;;;;;0.00;0.00;;;4.80;1.00;;;;;;6153691;23;20418;-68
2021/03/15 03:10:24;;;;;;;0.00;0.00;;;4.80;1.00;;;;;;6153775;23;20383;-69
2021/03/15 03:12:52;;;;;;;0.00;0.00;;;4.80;1.00;;;;;;6153872;23;20434;-68
2021/03/15 03:15:21;;;;;;;0.00;0.00;;;4.80;1.00;;;;;;6153749;23;20854;-68
2021/03/15 03:17:48;;;;;;;0.00;0.00;;;4.60;1.00;;;;;;6153255;23;20467;-68
2021/03/15 03:20:17;;;;;;;0.00;0.00;;;4.60;1.00;;;;;;6153862;23;20445;-68
2021/03/15 03:22:46;;;;;;;0.00;0.00;;;4.60;1.00;;;;;;6153811;23;20379;-68
2021/03/15 03:25:16;;;;;;;0.00;0.00;;;4.60;1.00;;;;;;6154197;23;20375;-68
2021/03/15 03:27:46;;;;;;;0.00;0.00;;;4.60;1.00;;;;;;6153142;23;20386;-67
2021/03/15 03:30:14;;;;;;;0.00;0.00;;;4.60;1.00;;;;;;6153969;23;20699;-68
2021/03/15 03:32:42;;;;;;;0.00;0.00;;;4.70;1.00;;;;;;6153203;23;20933;-68
2021/03/15 03:35:09;;;;;;;0.00;0.00;;;4.70;1.00;;;;;;6153541;23;20869;-68
2021/03/15 03:37:35;;;;;;;0.00;0.00;;;4.70;1.00;;;;;;6153365;23;20379;-68
2021/03/15 03:40:05;;;;;;;0.00;0.00;;;4.70;1.00;;;;;;6153051;23;20375;-69
2021/03/15 03:42:32;;;;;;;0.00;0.00;;;4.70;1.00;;;;;;6153878;23;20383;-68
2021/03/15 03:44:59;;;;;;;0.00;0.00;;;4.70;1.00;;;;;;6153309;23;20378;-68
2021/03/15 03:47:25;;;;;;;0.00;0.00;;;4.70;1.00;;;;;;6153295;23;20379;-68
2021/03/15 03:49:51;;;;;;;0.00;0.00;;;4.60;1.00;;;;;;6153431;23;20426;-68
2021/03/15 03:52:22;;;;;;;0.00;0.00;;;4.70;1.00;;;;;;6153697;23;20482;-69
2021/03/15 03:54:50;;;;;;;0.00;0.00;;;4.80;1.00;;;;;;6153779;23;20432;-69
2021/03/15 03:57:24;;;;;;;0.00;0.00;;;4.80;1.00;;;;;;6153961;23;20374;-68
2021/03/15 03:59:51;;;;;;;0.00;0.00;;;4.80;1.00;;;;;;6153358;23;20379;-69
2021/03/15 04:02:24;;;;;;;0.00;0.00;;;4.70;1.00;;;;;;6153606;23;20379;-67
2021/03/15 04:04:55;;;;;;;0.00;0.00;;;4.80;1.00;;;;;;6153800;23;20375;-69
2021/03/15 04:07:25;;;;;;;0.00;0.00;;;4.80;1.00;;;;;;6153547;23;20388;-67
2021/03/15 04:10:00;;;;;;;0.00;0.00;;;4.90;1.00;;;;;;6154117;23;20401;-68
2021/03/15 04:12:28;;;;;;;0.00;0.00;;;4.90;1.00;;;;;;6153310;23;20458;-68
2021/03/15 04:14:57;;;;;;;0.00;0.00;;;4.90;1.00;;;;;;6153327;23;20378;-67
2021/03/15 04:17:30;;;;;;;0.00;0.00;;;5.00;1.00;;;;;;6153126;23;20710;-68
2021/03/15 04:20:00;;;;;;;0.00;0.00;;;4.90;1.00;;;;;;6153338;23;20380;-69
2021/03/15 04:22:28;;;;;;;0.00;0.00;;;4.70;1.00;;;;;;6153014;23;20370;-68
2021/03/15 04:24:56;;;;;;;0.00;0.00;;;4.90;1.00;;;;;;6153552;23;20379;-68
2021/03/15 04:27:24;;;;;;;0.00;0.00;;;5.00;1.00;;;;;;6153805;23;20375;-69
2021/03/15 04:29:52;;;;;;;0.00;0.00;;;5.00;1.00;;;;;;6154219;23;20446;-68
2021/03/15 04:32:20;;;;;;;0.00;0.00;;;5.00;1.00;;;;;;6153644;23;20398;-68
2021/03/15 04:34:48;;;;;;;0.00;0.00;;;5.00;1.00;;;;;;6154011;23;20382;-68
2021/03/15 04:37:15;;;;;;;0.00;0.00;;;5.00;1.00;;;;;;6153368;23;20383;-68
2021/03/15 04:39:41;;;;;;;0.00;0.00;;;5.00;1.00;;;;;;6153313;23;20375;-68
2021/03/15 04:42:08;;;;;;;0.00;0.00;;;4.90;1.00;;;;;;6153490;23;20382;-68
2021/03/15 04:44:38;;;;;;;0.00;0.00;;;5.00;1.00;;;;;;6153138;23;20386;-68
2021/03/15 04:47:05;;;;;;;0.00;0.00;;;5.00;1.00;;;;;;6153179;23;20382;-68
2021/03/15 04:49:32;;;;;;;0.00;0.00;;;4.90;1.00;;;;;;6152742;23;20762;-68
2021/03/15 04:52:00;;;;;;;0.00;0.00;;;4.90;1.00;;;;;;6154131;23;20385;-68
2021/03/15 04:54:26;;;;;;;0.00;0.00;;;4.90;1.00;;;;;;6156235;23;20410;-67
2021/03/15 04:56:54;;;;;;;0.00;0.00;;;4.90;1.00;;;;;;6154915;23;20387;-69
2021/03/15 04:59:22;;;;;;;0.00;0.00;;;4.80;1.00;;;;;;6156746;23;20424;-68
2021/03/15 05:01:49;;;;;;;0.00;0.00;;;4.80;1.00;;;;;;6154642;23;20391;-67
2021/03/15 05:04:16;;;;;;;0.00;0.00;;;4.70;1.00;;;;;;6155023;23;20379;-68
2021/03/15 05:06:44;;;;;;;0.00;0.00;;;4.80;1.00;;;;;;6154819;23;20407;-67
2021/03/15 05:09:14;;;;;;;0.00;0.00;;;4.80;1.00;;;;;;6155165;23;20769;-68
2021/03/15 05:11:42;;;;;;;0.00;0.00;;;4.70;1.00;;;;;;6154963;23;20449;-68
2021/03/15 05:14:11;;;;;;;0.00;0.00;;;4.70;1.00;;;;;;6153382;23;20375;-69
2021/03/15 05:16:39;;;;;;;0.00;0.00;;;4.60;1.00;;;;;;6150018;23;20433;-68
2021/03/15 05:19:09;;;;;;;0.00;0.00;;;4.60;1.00;;;;;;6152674;23;20379;-68
2021/03/15 05:21:37;;;;;;;0.00;0.00;;;4.60;1.00;;;;;;6153210;23;20387;-68
2021/03/15 05:24:04;;;;;;;0.00;0.00;;;4.60;1.00;;;;;;6152809;23;20382;-68
2021/03/15 05:26:33;;;;;;;0.00;0.00;;;4.70;1.00;;;;;;6151817;23;20889;-67
2021/03/15 05:29:00;;;;;;;0.00;0.00;;;4.70;1.00;;;;;;6151913;23;20445;-65
2021/03/15 05:31:28;;;;;;;0.00;0.00;;;4.70;1.00;;;;;;6152835;23;20691;-66
2021/03/15 05:33:55;;;;;;;0.00;0.00;;;4.70;1.00;;;;;;6152218;23;20381;-66
2021/03/15 05:36:23;;;;;;;0.00;0.00;;;4.70;1.00;;;;;;6152882;23;20385;-65
2021/03/15 05:38:49;;;;;;;0.00;0.00;;;4.60;1.00;;;;;;6152856;23;20377;-66
2021/03/15 05:41:17;;;;;;;0.00;0.00;;;4.60;1.00;;;;;;6152541;23;20374;-65
2021/03/15 05:43:56;;;;;;;0.00;0.00;;;4.70;1.00;;;;;;6153902;23;20385;-67
2021/03/15 05:47:06;;;;;;;0.00;0.00;;;4.60;1.00;;;;;;6152655;23;20383;-68
2021/03/15 05:50:04;;;;;;;0.00;0.00;;;4.70;1.00;;;;;;6152354;23;20404;-69
2021/03/15 05:52:45;;;;;;;0.00;0.00;;;4.70;1.00;;;;;;6152861;23;20375;-68
2021/03/15 05:55:39;;;;;;;0.00;0.00;;;4.60;1.00;;;;;;6152408;23;20868;-68
2021/03/15 05:58:38;;;;;;;0.00;0.00;;;4.60;1.00;;;;;;6151690;23;20418;-69
2021/03/15 06:01:20;;;;;;;0.00;0.00;;;4.70;1.00;;;;;;6152710;23;20382;-68
2021/03/15 06:04:31;;;;;;;0.00;0.00;;;4.70;1.00;;;;;;6152217;23;20382;-68
2021/03/15 06:07:02;;;;;;;0.00;0.00;;;4.70;1.00;;;;;;6133712;23;20866;-68
2021/03/15 06:09:34;;;;;;;0.00;0.00;;;4.80;1.00;;;;;;6152452;23;20398;-68
2021/03/15 06:12:05;;;;;;;0.00;0.00;;;4.80;1.00;;;;;;6101152;23;1218907;-67
2021/03/15 06:14:34;;;;;;;0.00;0.00;;;4.80;1.00;;;;;;6154290;23;20383;-68
2021/03/15 06:17:02;;;;;;;0.00;0.00;;;4.70;1.00;;;;;;6154145;23;20398;-68
2021/03/15 06:19:32;;;;;;;0.00;0.00;;;4.70;1.00;;;;;;6153905;23;20374;-68
2021/03/15 06:21:59;;;;;;;0.00;0.00;;;4.70;1.00;;;;;;6155892;23;20383;-69
2021/03/15 06:24:26;;;;;;;0.00;0.00;;;4.70;1.00;;;;;;6155826;23;20445;-68
2021/03/15 06:26:54;;;;;;;0.00;0.00;;;4.80;1.00;;;;;;6153876;23;20386;-69
2021/03/15 06:29:20;;;;;;;0.00;0.00;;;4.80;1.00;;;;;;6153194;23;20398;-67
2021/03/15 06:31:49;;;;;;;0.00;0.00;;;4.80;1.00;;;;;;6154223;23;20410;-67
2021/03/15 06:34:18;;;;;;;0.00;0.00;;;4.80;1.00;;;;;;6155002;23;20936;-65
2021/03/15 06:36:44;;;;;;;0.00;0.00;;;4.80;1.00;;;;;;6153761;23;20374;-65
2021/03/15 06:39:11;;;;;;;0.00;0.00;;;4.90;1.00;;;;;;6150571;23;20405;-65
2021/03/15 06:41:41;;;;;;;0.00;0.00;;;4.90;1.00;;;;;;6153535;23;20382;-65
2021/03/15 06:44:08;;;;;;;0.00;0.00;;;4.90;1.00;;;;;;6153416;23;20391;-65
2021/03/15 06:46:34;;;;;;;0.00;0.00;;;4.90;1.00;;;;;;6153230;23;20383;-65
2021/03/15 06:49:00;;;;;;;0.00;0.00;;;4.80;1.00;;;;;;6153341;23;20394;-66
2021/03/15 06:51:27;;;;;;;0.00;0.00;;;4.90;1.00;;;;;;6153593;23;20414;-67
2021/03/15 06:53:54;;;;;;;0.00;0.00;;;4.90;1.00;;;;;;6153403;23;20398;-68
2021/03/15 06:56:20;;;;;;;0.00;0.00;;;5.00;1.00;;;;;;6153055;23;20463;-69
2021/03/15 06:58:48;;;;;;;0.00;0.00;;;5.20;1.00;;;;;;6152769;23;20388;-68
2021/03/15 07:01:17;;;;;;;0.00;0.00;;;5.40;1.00;;;;;;6153141;23;20379;-70
2021/03/15 07:03:44;;;;;;;0.00;0.00;;;5.50;1.00;;;;;;6153832;23;20383;-71
2021/03/15 07:06:11;;;;;;;0.00;0.00;;;5.60;1.00;;;;;;6153421;23;20375;-69
2021/03/15 07:08:38;;;;;;;0.00;0.00;;;5.80;1.00;;;;;;6152565;23;20493;-70
2021/03/15 07:11:04;;;;;;;0.00;0.00;;;5.70;1.00;;;;;;6153080;23;20386;-70
2021/03/15 07:13:37;;;;;;;0.00;0.00;;;5.90;1.00;;;;;;6152871;23;20383;-69
2021/03/15 07:16:04;;;;;;;0.00;0.00;;;6.20;1.00;;;;;;6152634;23;20442;-70
2021/03/15 07:18:33;;;;;;;0.00;0.00;;;6.20;1.00;;;;;;6152719;23;20386;-68
2021/03/15 07:21:02;;;;;;;0.00;0.00;;;6.30;1.00;;;;;;6152854;23;20388;-67
2021/03/15 07:23:39;;;;;;;0.00;0.00;;;6.20;1.00;;;;;;6153102;23;20392;-67
2021/03/15 07:26:13;;;;;;;0.00;0.00;;;6.00;1.00;;;;;;6152989;23;20431;-67
2021/03/15 07:28:39;;;;;;;0.00;0.00;;;6.00;1.00;;;;;;6152556;23;20758;-70
2021/03/15 07:31:28;;;;;;;0.00;0.00;;;5.90;1.00;;;;;;6153161;23;20398;-66
2021/03/15 07:34:24;;;;;;;0.00;0.00;;;5.80;1.00;;;;;;6148228;23;20382;-66
2021/03/15 07:36:54;;;;;;;0.00;0.00;;;6.00;1.00;;;;;;6091113;23;20436;-66
2021/03/15 07:39:22;;;;;;;0.00;0.00;;;6.00;1.00;;;;;;6138958;23;20391;-66
2021/03/15 07:41:50;;;;;;;0.00;0.00;;;6.00;1.00;;;;;;6153072;23;20388;-66
2021/03/15 07:44:19;;;;;;;0.00;0.00;;;6.00;1.00;;;;;;6152864;23;20387;-67
2021/03/15 07:46:45;;;;;;;0.00;0.00;;;6.10;1.00;;;;;;6154370;23;20429;-66
2021/03/15 07:49:27;;;;;;;0.00;0.00;;;6.20;1.00;;;;;;6152558;23;20417;-66
2021/03/15 07:51:56;;;;;;;0.00;0.00;;;6.50;1.00;;;;;;6152926;23;20388;-65
2021/03/15 07:54:25;;;;;;;0.00;0.00;;;6.60;1.00;;;;;;6153038;23;20458;-66
2021/03/15 07:57:16;;;;;;;0.00;0.00;;;6.60;1.00;;;;;;6152766;23;20431;-66
2021/03/15 07:59:43;;;;;;;0.00;0.00;;;6.40;99.90;;;;;;6144709;23;20404;-66
2021/03/15 08:02:15;;;;;;;0.00;0.00;;;6.40;99.90;;;;;;6152513;23;20390;-66
2021/03/15 08:04:41;;;;;;;0.00;0.00;;;6.50;99.90;;;;;;6152648;23;20845;-65
2021/03/15 08:07:08;;;;;;;0.00;0.00;;;6.50;99.90;;;;;;6152667;23;20386;-66
2021/03/15 08:09:35;;;;;;;0.00;0.00;;;6.30;99.90;;;;;;6153162;23;20902;-65
2021/03/15 08:12:05;;;;;;;0.00;0.00;;;6.40;99.90;;;;;;6153945;23;20387;-66
2021/03/15 08:14:35;;;;;;;0.00;0.00;;;6.40;99.90;;;;;;6153688;23;20440;-68
2021/03/15 08:17:03;;;;;;;0.00;0.00;;;6.40;99.90;;;;;;6152629;23;20397;-67
2021/03/15 08:19:31;;;;;;;0.00;0.00;;;6.30;99.90;;;;;;6151929;23;20402;-67
2021/03/15 08:21:59;;;;;;;0.00;0.00;;;6.20;99.90;;;;;;6152825;23;20410;-68
2021/03/15 08:24:26;;;;;;;0.00;0.00;;;6.00;99.90;;;;;;6152261;23;20881;-67
2021/03/15 08:26:53;;;;;;;0.00;0.00;;;6.00;99.90;;;;;;6152590;23;20382;-69
2021/03/15 08:29:20;;;;;;;0.00;0.00;;;6.00;99.90;;;;;;6153745;23;20390;-68
2021/03/15 08:31:49;;;;;;;0.00;0.00;;;6.00;99.90;;;;;;6152968;23;20395;-68
2021/03/15 08:34:16;;;;;;;0.00;0.00;;;6.00;99.90;;;;;;6153902;23;20920;-67
2021/03/15 08:36:44;;;;;;;0.00;0.00;;;5.80;99.90;;;;;;6155794;23;20423;-67
2021/03/15 08:39:47;;;;;;;0.00;0.00;;;5.90;99.90;;;;;;6155466;23;20384;-66
2021/03/15 08:42:25;;;;;;;0.00;0.00;;;6.00;99.90;;;;;;6153100;23;20768;-67
2021/03/15 08:44:52;;;;;;;0.00;0.00;;;6.20;99.90;;;;;;6153966;23;20371;-66
2021/03/15 08:47:51;;;;;;;0.00;0.00;;;6.60;99.90;;;;;;6152769;23;20426;-67
2021/03/15 08:50:42;;;;;;;0.00;0.00;;;6.80;99.90;;;;;;6152766;23;20506;-65
2021/03/15 08:53:09;;;;;;;0.00;0.00;;;6.90;99.90;;;;;;6152323;23;20470;-69
2021/03/15 08:55:46;;;;;;;0.00;0.00;;;6.90;99.90;;;;;;6152581;23;20423;-68
2021/03/15 08:58:37;;;;;;;0.00;0.00;;;6.80;99.90;;;;;;6151926;23;20392;-67
2021/03/15 09:01:05;;;;;;;0.00;0.00;;;6.90;99.90;;;;;;6152083;23;20395;-68
2021/03/15 09:03:56;;;;;;;0.00;0.00;;;6.90;99.90;;;;;;6153824;23;20386;-68
2021/03/15 09:06:47;;;;;;;0.00;0.00;;;6.80;99.90;;;;;;6137381;23;20396;-69
2021/03/15 09:09:14;;;;;;;0.00;0.00;;;6.70;99.90;;;;;;6152269;23;20400;-68
2021/03/15 09:11:49;;;;;;;0.00;0.00;;;6.50;99.90;;;;;;6152541;23;20388;-69
2021/03/15 09:14:34;;;;;;;0.00;0.00;;;6.30;99.90;;;;;;6152476;23;20383;-69
2021/03/15 09:17:22;;;;;;;0.00;0.00;;;6.20;99.90;;;;;;6152124;23;20395;-69
2021/03/15 09:19:49;;;;;;;0.00;0.00;;;6.20;99.90;;;;;;6151665;23;20375;-68
2021/03/15 09:22:23;;;;;;;0.00;0.00;;;6.20;99.90;;;;;;6152076;23;20386;-67
2021/03/15 09:24:52;;;;;;;0.00;0.00;;;6.30;99.90;;;;;;6152854;23;20768;-67
2021/03/15 09:27:35;;;;;;;0.00;0.00;;;6.30;99.90;;;;;;6151833;23;20723;-68
2021/03/15 09:30:12;;;;;;;0.00;0.00;;;6.30;99.90;;;;;;6151677;23;20395;-68
2021/03/15 09:32:41;;;;;;;0.00;0.00;;;6.60;99.90;;;;;;6152438;23;20384;-68
2021/03/15 09:35:19;;;;;;;0.00;0.00;;;7.10;99.90;;;;;;6152102;23;20541;-69
2021/03/15 09:37:49;;;;;;;0.00;0.00;;;7.30;99.90;;;;;;6152457;23;20435;-69
2021/03/15 09:40:17;;;;;;;0.00;0.00;;;7.10;99.90;;;;;;6153244;23;20388;-68
2021/03/15 09:42:44;;;;;;;0.00;0.00;;;7.20;99.90;;;;;;6154409;23;20382;-67
2021/03/15 09:45:13;;;;;;;0.00;0.00;;;7.30;99.90;;;;;;6154453;23;20385;-67
2021/03/15 09:47:40;;;;;;;0.00;0.00;;;7.20;99.90;;;;;;6154380;23;20400;-66
2021/03/15 09:50:16;;;;;;;0.00;0.00;;;7.20;99.90;;;;;;6154052;23;20387;-68
2021/03/15 09:52:43;;;;;;;0.00;0.00;;;7.20;99.90;;;;;;6154573;23;20392;-67
2021/03/15 09:55:09;;;;;;;0.00;0.00;;;7.30;99.90;;;;;;6153847;23;20378;-68
2021/03/15 09:57:35;;;;;;;0.00;0.00;;;7.50;99.90;;;;;;6153448;23;20392;-66
2021/03/15 10:00:10;;;;;;;0.00;0.00;;;7.70;99.90;;;;;;6153800;23;20379;-66
2021/03/15 10:02:37;;;;;;;0.00;0.00;;;7.60;99.90;;;;;;6154087;23;20851;-68
2021/03/15 10:05:04;;;;;;;0.00;0.00;;;7.50;99.90;;;;;;6154324;23;20379;-67
2021/03/15 10:07:30;;;;;;;0.00;0.00;;;7.60;99.90;;;;;;6154218;23;20382;-66
2021/03/15 10:09:56;;;;;;;0.00;0.00;;;7.50;99.90;;;;;;6153429;23;20387;-66
2021/03/15 10:12:24;;;;;;;0.00;0.00;;;7.40;99.90;;;;;;6153786;23;20784;-67
2021/03/15 10:15:00;;;;;;;0.00;0.00;;;7.40;99.90;;;;;;6153954;23;20788;-67
2021/03/15 10:17:27;;;;;;;0.00;0.00;;;7.50;99.90;;;;;;6153627;23;20384;-67
2021/03/15 10:19:55;;;;;;;0.00;0.00;;;7.60;99.90;;;;;;6152882;23;20855;-68
2021/03/15 10:22:21;;;;;;;0.00;0.00;;;7.70;99.90;;;;;;6154082;23;20383;-68
2021/03/15 10:24:50;;;;;;;0.00;0.00;;;7.70;99.90;;;;;;6154484;23;20383;-68
2021/03/15 10:27:18;;;;;;;0.00;0.00;;;7.60;99.90;;;;;;6153056;23;20388;-68
2021/03/15 10:29:53;;;;;;;0.00;0.00;;;7.50;99.90;;;;;;6153361;23;20407;-68
2021/03/15 10:32:24;;;;;;;0.00;0.00;;;7.50;99.90;;;;;;6153843;23;20719;-68
2021/03/15 10:34:56;;;;;;;0.00;0.00;;;7.60;99.90;;;;;;6153936;23;20387;-69
2021/03/15 10:37:23;;;;;;;0.00;0.00;;;7.40;99.90;;;;;;6152702;23;20873;-68
2021/03/15 10:39:50;;;;;;;0.00;0.00;;;7.30;99.90;;;;;;6153427;23;20384;-67
2021/03/15 10:42:18;;;;;;;0.00;0.00;;;7.20;99.90;;;;;;6153992;23;20379;-68
2021/03/15 10:44:44;;;;;;;0.00;0.00;;;7.00;99.90;;;;;;6153830;23;20694;-66
2021/03/15 10:47:13;;;;;;;0.00;0.00;;;6.90;99.90;;;;;;6153959;23;20401;-66
2021/03/15 10:49:40;;;;;;;0.00;0.00;;;7.00;99.90;;;;;;6152381;23;20395;-68
2021/03/15 10:52:07;;;;;;;0.00;0.00;;;7.10;99.90;;;;;;6153554;23;20425;-66
2021/03/15 10:54:35;;;;;;;0.00;0.00;;;7.30;99.90;;;;;;6153349;23;20382;-70
2021/03/15 10:57:17;;;;;;;0.00;0.00;;;7.50;99.90;;;;;;6153282;23;20418;-68
2021/03/15 10:59:44;;;;;;;0.00;0.00;;;7.60;99.90;;;;;;6152880;23;20381;-68
2021/03/15 11:02:11;;;;;;;0.00;0.00;;;7.60;99.90;;;;;;6153425;23;20379;-67
2021/03/15 11:04:39;;;;;;;0.00;0.00;;;7.90;99.90;;;;;;6153250;23;20385;-67
2021/03/15 11:07:20;;;;;;;0.00;0.00;;;8.20;99.90;;;;;;6152683;23;20382;-68
2021/03/15 11:09:57;;;;;;;0.00;0.00;;;8.60;99.90;;;;;;6152676;23;20395;-69
2021/03/15 11:12:34;;;;;;;0.00;0.00;;;8.70;99.90;;;;;;6152859;23;20387;-70
2021/03/15 11:15:31;;;;;;;0.00;0.00;;;8.70;99.90;;;;;;6153116;23;20770;-69
2021/03/15 11:18:14;;;;;;;0.00;0.00;;;8.70;99.90;;;;;;6152605;23;20386;-66
2021/03/15 11:20:53;;;;;;;0.00;0.00;;;8.60;99.90;;;;;;6150129;23;20401;-66
2021/03/15 11:23:31;;;;;;;0.00;0.00;;;8.60;99.90;;;;;;6152840;23;20836;-69
2021/03/15 11:26:03;;;;;;;0.00;0.00;;;8.50;99.90;;;;;;6153268;23;20390;-69
2021/03/15 11:28:35;;;;;;;0.00;0.00;;;8.20;99.90;;;;;;6152418;23;20383;-69
2021/03/15 11:31:01;;;;;;;0.00;0.00;;;7.90;99.90;;;;;;6152396;23;20371;-68
2021/03/15 11:33:28;;;;;;;0.00;0.00;;;7.80;99.90;;;;;;6152882;23;20866;-69
2021/03/15 11:35:57;;;;;;;0.00;0.00;;;7.70;99.90;;;;;;6152850;23;20378;-69
2021/03/15 11:38:24;;;;;;;0.00;0.00;;;7.20;99.90;;;;;;6152397;23;20379;-69
2021/03/15 11:40:51;;;;;;;0.00;0.00;;;6.80;99.90;;;;;;6152463;23;20871;-69
2021/03/15 11:43:18;;;;;;;0.00;0.00;;;6.80;99.90;;;;;;6152810;23;20874;-67
2021/03/15 11:45:44;;;;;;;0.00;0.00;;;6.70;99.90;;;;;;6153322;23;20383;-67
2021/03/15 11:48:11;;;;;;;0.00;0.00;;;6.70;99.90;;;;;;6152224;23;20385;-67
2021/03/15 11:50:39;;;;;;;0.00;0.00;;;6.80;99.90;;;;;;6152924;23;20762;-67
2021/03/15 11:53:06;;;;;;;0.00;0.00;;;7.00;99.90;;;;;;6152734;23;20379;-66
2021/03/15 11:55:33;;;;;;;0.00;0.00;;;7.20;99.90;;;;;;6153019;23;20379;-65
2021/03/15 11:58:00;;;;;;;0.00;0.00;;;7.30;99.90;;;;;;6152169;23;20832;-65
2021/03/15 12:00:26;;;;;;;0.00;0.00;;;7.40;99.90;;;;;;6152586;23;20392;-66
2021/03/15 12:02:53;;;;;;;0.00;0.00;;;7.70;99.90;;;;;;6152834;23;20374;-65
2021/03/15 12:05:21;;;;;;;0.00;0.00;;;7.90;99.90;;;;;;6152568;23;20396;-65
2021/03/15 12:07:48;;;;;;;0.00;0.00;;;8.20;99.90;;;;;;6152667;23;20374;-66
2021/03/15 12:10:15;;;;;;;0.00;0.00;;;8.40;99.90;;;;;;6152318;23;20722;-68
2021/03/15 12:12:41;;;;;;;0.00;0.00;;;8.60;99.90;;;;;;6152636;23;20853;-67
2021/03/15 12:15:11;;;;;;;0.00;0.00;;;8.90;99.90;;;;;;6152667;23;20379;-68
2021/03/15 12:17:37;;;;;;;0.00;0.00;;;9.10;99.90;;;;;;6152376;23;20379;-66
2021/03/15 12:20:05;;;;;;;0.00;0.00;;;8.90;99.90;;;;;;6152525;23;20375;-67
2021/03/15 12:22:31;;;;;;;0.00;0.00;;;8.60;99.90;;;;;;6152486;23;20450;-66
2021/03/15 12:24:57;;;;;;;0.00;0.00;;;8.70;99.90;;;;;;6153002;23;20385;-64
2021/03/15 12:27:24;;;;;;;0.00;0.00;;;8.30;99.90;;;;;;6152294;23;20379;-65
2021/03/15 12:29:50;;;;;;;0.00;0.00;;;8.20;99.90;;;;;;6152235;23;20418;-65
2021/03/15 12:32:17;;;;;;;0.00;0.00;;;8.50;99.90;;;;;;6152807;23;20382;-65
2021/03/15 12:34:43;;;;;;;0.00;0.00;;;8.70;99.90;;;;;;6152713;23;20691;-65
2021/03/15 12:37:09;;;;;;;0.00;0.00;;;8.90;99.90;;;;;;6152561;23;20703;-65
2021/03/15 12:39:36;;;;;;;0.00;0.00;;;8.90;99.90;;;;;;6151633;23;20375;-65
2021/03/15 12:42:02;;;;;;;0.00;0.00;;;9.10;99.90;;;;;;6152319;23;20379;-65
2021/03/15 12:44:28;;;;;;;0.00;0.00;;;9.20;99.90;;;;;;6152392;23;20375;-65
2021/03/15 12:46:55;;;;;;;0.00;0.00;;;9.30;99.90;;;;;;6152473;23;20755;-64
2021/03/15 12:49:22;;;;;;;0.00;0.00;;;9.20;99.90;;;;;;6151155;23;20457;-68
2021/03/15 12:51:48;;;;;;;0.00;0.00;;;9.10;99.90;;;;;;6152657;23;20379;-66
2021/03/15 12:54:15;;;;;;;0.00;0.00;;;8.70;99.90;;;;;;6152646;23;20437;-66
2021/03/15 12:56:42;;;;;;;0.00;0.00;;;8.40;99.90;;;;;;6151932;23;20869;-68
2021/03/15 12:59:08;;;;;;;0.00;0.00;;;7.80;99.90;;;;;;6152456;23;20374;-66
2021/03/15 13:01:34;;;;;;;0.00;0.00;;;7.50;99.90;;;;;;6152960;23;20387;-66
2021/03/15 13:04:01;;;;;;;0.00;0.00;;;7.00;99.90;;;;;;6152976;23;20390;-66
2021/03/15 13:06:28;;;;;;;0.00;0.00;;;6.60;99.90;;;;;;6153684;23;20382;-66
2021/03/15 13:08:54;;;;;;;0.00;0.00;;;6.40;99.90;;;;;;6156165;23;20722;-66
2021/03/15 13:11:20;;;;;;;0.00;0.00;;;6.60;99.90;;;;;;6156166;23;20410;-66
2021/03/15 13:13:47;;;;;;;0.00;0.00;;;6.80;99.90;;;;;;6153895;23;20379;-67
2021/03/15 13:16:13;;;;;;;0.00;0.00;;;7.10;99.90;;;;;;6154240;23;20392;-66
2021/03/15 13:18:39;;;;;;;0.00;0.00;;;7.30;99.90;;;;;;6153301;23;20378;-66